sensor_id;sensor_type;location;lat;lon;timestamp;pressure;altitude;pressure_sealevel;temperature;humidity
50282;BME280;36176;51.506;10.272;2023-05-02T00:01:57;99457.63;;;8.43;98.42
50282;BME280;36176;51.506;10.272;2023-05-02T00:04:24;99449.69;;;8.43;99.19
50282;BME280;36176;51.506;10.272;2023-05-02T00:06:52;99459.09;;;8.50;98.31
50282;BME280;36176;51.506;10.272;2023-05-02T00:09:19;99457.19;;;8.54;97.69
50282;BME280;36176;51.506;10.272;2023-05-02T00:11:46;99454.44;;;8.57;97.59
50282;BME280;36176;51.506;10.272;2023-05-02T00:14:13;99445.59;;;8.58;97.40
50282;BME280;36176;51.506;10.272;2023-05-02T00:16:40;99456.03;;;8.61;97.41
50282;BME280;36176;51.506;10.272;2023-05-02T00:19:07;99455.03;;;8.64;97.78
50282;BME280;36176;51.506;10.272;2023-05-02T00:21:34;99454.88;;;8.68;97.37
50282;BME280;36176;51.506;10.272;2023-05-02T00:24:01;99455.66;;;8.70;97.10
50282;BME280;36176;51.506;10.272;2023-05-02T00:26:28;99460.16;;;8.68;97.68
50282;BME280;36176;51.506;10.272;2023-05-02T00:28:56;99457.59;;;8.67;97.63
50282;BME280;36176;51.506;10.272;2023-05-02T00:31:24;99459.53;;;8.62;97.58
50282;BME280;36176;51.506;10.272;2023-05-02T00:33:51;99464.25;;;8.54;98.37
50282;BME280;36176;51.506;10.272;2023-05-02T00:36:18;99461.66;;;8.52;98.35
50282;BME280;36176;51.506;10.272;2023-05-02T00:38:45;99466.03;;;8.53;98.92
50282;BME280;36176;51.506;10.272;2023-05-02T00:41:12;99476.44;;;8.58;98.71
50282;BME280;36176;51.506;10.272;2023-05-02T00:43:39;99474.47;;;8.63;98.49
50282;BME280;36176;51.506;10.272;2023-05-02T00:46:06;99471.81;;;8.63;98.51
50282;BME280;36176;51.506;10.272;2023-05-02T00:48:34;99478.72;;;8.67;98.14
50282;BME280;36176;51.506;10.272;2023-05-02T00:51:03;99471.53;;;8.70;98.17
50282;BME280;36176;51.506;10.272;2023-05-02T00:53:34;99473.97;;;8.75;97.78
50282;BME280;36176;51.506;10.272;2023-05-02T00:56:02;99469.50;;;8.77;97.81
50282;BME280;36176;51.506;10.272;2023-05-02T00:58:29;99473.00;;;8.78;97.88
50282;BME280;36176;51.506;10.272;2023-05-02T01:09:25;99468.56;;;8.78;98.65
50282;BME280;36176;51.506;10.272;2023-05-02T01:12:05;99467.66;;;8.79;98.43
50282;BME280;36176;51.506;10.272;2023-05-02T01:14:41;99468.66;;;8.77;98.59
50282;BME280;36176;51.506;10.272;2023-05-02T01:17:12;99472.28;;;8.74;98.58
50282;BME280;36176;51.506;10.272;2023-05-02T01:19:50;99466.06;;;8.75;98.61
50282;BME280;36176;51.506;10.272;2023-05-02T01:22:18;99467.84;;;8.75;97.91
50282;BME280;36176;51.506;10.272;2023-05-02T01:27:50;99476.66;;;8.73;98.81
50282;BME280;36176;51.506;10.272;2023-05-02T01:30:20;99479.44;;;8.70;98.68
50282;BME280;36176;51.506;10.272;2023-05-02T01:32:48;99483.88;;;8.70;99.21
50282;BME280;36176;51.506;10.272;2023-05-02T01:35:19;99485.47;;;8.74;98.87
50282;BME280;36176;51.506;10.272;2023-05-02T01:37:48;99490.63;;;8.77;98.30
50282;BME280;36176;51.506;10.272;2023-05-02T01:40:22;99490.56;;;8.79;98.32
50282;BME280;36176;51.506;10.272;2023-05-02T01:42:52;99492.28;;;8.80;98.52
50282;BME280;36176;51.506;10.272;2023-05-02T01:45:21;99494.94;;;8.80;98.14
50282;BME280;36176;51.506;10.272;2023-05-02T01:47:50;99501.06;;;8.80;98.33
50282;BME280;36176;51.506;10.272;2023-05-02T01:50:20;99497.53;;;8.81;99.09
50282;BME280;36176;51.506;10.272;2023-05-02T01:52:51;99499.09;;;8.85;97.89
50282;BME280;36176;51.506;10.272;2023-05-02T01:55:20;99501.56;;;8.90;98.56
50282;BME280;36176;51.506;10.272;2023-05-02T01:57:49;99500.59;;;8.92;98.46
50282;BME280;36176;51.506;10.272;2023-05-02T02:00:18;99497.13;;;8.90;99.02
50282;BME280;36176;51.506;10.272;2023-05-02T02:02:47;99500.72;;;8.89;98.85
50282;BME280;36176;51.506;10.272;2023-05-02T02:05:17;99506.97;;;8.87;98.40
50282;BME280;36176;51.506;10.272;2023-05-02T02:07:44;99510.59;;;8.84;99.05
50282;BME280;36176;51.506;10.272;2023-05-02T02:10:12;99511.47;;;8.85;98.56
50282;BME280;36176;51.506;10.272;2023-05-02T02:12:41;99513.38;;;8.81;98.56
50282;BME280;36176;51.506;10.272;2023-05-02T02:15:15;99511.63;;;8.80;98.88
50282;BME280;36176;51.506;10.272;2023-05-02T02:17:48;99514.22;;;8.82;98.79
50282;BME280;36176;51.506;10.272;2023-05-02T02:20:17;99520.41;;;8.81;98.68
50282;BME280;36176;51.506;10.272;2023-05-02T02:22:45;99510.84;;;8.78;99.38
50282;BME280;36176;51.506;10.272;2023-05-02T02:25:15;99513.47;;;8.78;99.45
50282;BME280;36176;51.506;10.272;2023-05-02T02:27:43;99517.91;;;8.78;99.58
50282;BME280;36176;51.506;10.272;2023-05-02T02:30:10;99515.25;;;8.78;99.18
50282;BME280;36176;51.506;10.272;2023-05-02T02:32:38;99524.03;;;8.78;99.91
50282;BME280;36176;51.506;10.272;2023-05-02T02:35:05;99517.91;;;8.78;99.55
50282;BME280;36176;51.506;10.272;2023-05-02T02:40:58;99523.25;;;8.76;99.61
50282;BME280;36176;51.506;10.272;2023-05-02T02:43:32;99520.72;;;8.73;99.76
50282;BME280;36176;51.506;10.272;2023-05-02T02:54:56;99544.31;;;8.78;100.00
50282;BME280;36176;51.506;10.272;2023-05-02T02:57:35;99544.28;;;8.79;100.00
50282;BME280;36176;51.506;10.272;2023-05-02T03:00:06;99548.63;;;8.80;100.00
50282;BME280;36176;51.506;10.272;2023-05-02T03:02:35;99551.13;;;8.83;100.00
50282;BME280;36176;51.506;10.272;2023-05-02T03:05:04;99552.75;;;8.87;99.62
50282;BME280;36176;51.506;10.272;2023-05-02T03:07:32;99554.50;;;8.88;100.00
50282;BME280;36176;51.506;10.272;2023-05-02T03:10:02;99550.97;;;8.88;100.00
50282;BME280;36176;51.506;10.272;2023-05-02T03:12:30;99557.19;;;8.87;100.00
50282;BME280;36176;51.506;10.272;2023-05-02T03:17:59;99573.09;;;8.85;100.00
50282;BME280;36176;51.506;10.272;2023-05-02T03:20:26;99575.63;;;8.88;100.00
50282;BME280;36176;51.506;10.272;2023-05-02T03:22:54;99577.28;;;8.91;100.00
50282;BME280;36176;51.506;10.272;2023-05-02T03:25:20;99579.94;;;8.91;100.00
50282;BME280;36176;51.506;10.272;2023-05-02T03:27:47;99579.84;;;8.92;100.00
50282;BME280;36176;51.506;10.272;2023-05-02T03:30:15;99584.97;;;8.97;100.00
50282;BME280;36176;51.506;10.272;2023-05-02T03:32:42;99580.50;;;8.99;100.00
50282;BME280;36176;51.506;10.272;2023-05-02T03:35:09;99593.75;;;8.98;100.00
50282;BME280;36176;51.506;10.272;2023-05-02T03:37:36;99589.34;;;8.98;100.00
50282;BME280;36176;51.506;10.272;2023-05-02T03:40:03;99592.97;;;8.96;100.00
50282;BME280;36176;51.506;10.272;2023-05-02T03:42:30;99591.19;;;8.96;100.00
50282;BME280;36176;51.506;10.272;2023-05-02T03:44:58;99592.00;;;8.98;100.00
50282;BME280;36176;51.506;10.272;2023-05-02T03:47:24;99595.50;;;8.99;100.00
50282;BME280;36176;51.506;10.272;2023-05-02T03:49:51;99595.53;;;8.97;100.00
50282;BME280;36176;51.506;10.272;2023-05-02T03:52:18;99602.59;;;8.97;100.00
50282;BME280;36176;51.506;10.272;2023-05-02T03:54:45;99602.59;;;8.97;100.00
50282;BME280;36176;51.506;10.272;2023-05-02T03:57:12;99606.91;;;8.99;100.00
50282;BME280;36176;51.506;10.272;2023-05-02T03:59:39;99605.94;;;9.02;100.00
50282;BME280;36176;51.506;10.272;2023-05-02T04:02:11;99607.72;;;9.01;100.00
50282;BME280;36176;51.506;10.272;2023-05-02T04:04:39;99609.44;;;9.02;100.00
50282;BME280;36176;51.506;10.272;2023-05-02T04:07:06;99615.41;;;9.07;99.92
50282;BME280;36176;51.506;10.272;2023-05-02T04:09:33;99620.47;;;9.13;100.00
50282;BME280;36176;51.506;10.272;2023-05-02T04:12:00;99618.44;;;9.20;100.00
50282;BME280;36176;51.506;10.272;2023-05-02T04:14:27;99622.75;;;9.23;100.00
50282;BME280;36176;51.506;10.272;2023-05-02T04:16:54;99629.56;;;9.28;100.00
50282;BME280;36176;51.506;10.272;2023-05-02T04:19:21;99631.03;;;9.35;100.00
50282;BME280;36176;51.506;10.272;2023-05-02T04:21:48;99633.47;;;9.42;99.43
50282;BME280;36176;51.506;10.272;2023-05-02T04:24:15;99641.25;;;9.45;99.97
50282;BME280;36176;51.506;10.272;2023-05-02T04:26:42;99642.13;;;9.45;99.69
50282;BME280;36176;51.506;10.272;2023-05-02T04:29:09;99647.41;;;9.45;100.00
50282;BME280;36176;51.506;10.272;2023-05-02T04:31:36;99640.28;;;9.47;99.76
50282;BME280;36176;51.506;10.272;2023-05-02T04:34:03;99651.72;;;9.48;100.00
50282;BME280;36176;51.506;10.272;2023-05-02T04:36:30;99651.00;;;9.44;99.94
50282;BME280;36176;51.506;10.272;2023-05-02T04:38:57;99661.56;;;9.44;99.90
50282;BME280;36176;51.506;10.272;2023-05-02T04:41:24;99666.72;;;9.47;100.00
50282;BME280;36176;51.506;10.272;2023-05-02T04:43:51;99670.00;;;9.54;99.83
50282;BME280;36176;51.506;10.272;2023-05-02T04:46:18;99671.47;;;9.61;100.00
50282;BME280;36176;51.506;10.272;2023-05-02T04:48:45;99676.44;;;9.69;99.47
50282;BME280;36176;51.506;10.272;2023-05-02T04:51:12;99682.50;;;9.72;99.17
50282;BME280;36176;51.506;10.272;2023-05-02T04:53:42;99685.06;;;9.74;99.33
50282;BME280;36176;51.506;10.272;2023-05-02T04:56:09;99689.25;;;9.79;99.45
50282;BME280;36176;51.506;10.272;2023-05-02T04:58:37;99684.31;;;9.92;99.98
50282;BME280;36176;51.506;10.272;2023-05-02T05:01:04;99700.69;;;10.02;99.61
50282;BME280;36176;51.506;10.272;2023-05-02T05:03:31;99699.31;;;10.14;99.79
50282;BME280;36176;51.506;10.272;2023-05-02T05:05:59;99699.66;;;10.27;98.74
50282;BME280;36176;51.506;10.272;2023-05-02T05:08:26;99716.13;;;10.35;98.41
50282;BME280;36176;51.506;10.272;2023-05-02T05:10:53;99716.66;;;10.43;97.50
50282;BME280;36176;51.506;10.272;2023-05-02T05:13:20;99720.84;;;10.49;98.01
50282;BME280;36176;51.506;10.272;2023-05-02T05:15:47;99720.72;;;10.52;97.94
50282;BME280;36176;51.506;10.272;2023-05-02T05:18:14;99725.88;;;10.55;98.25
50282;BME280;36176;51.506;10.272;2023-05-02T05:20:41;99727.56;;;10.56;98.67
50282;BME280;36176;51.506;10.272;2023-05-02T05:23:08;99729.13;;;10.61;98.93
50282;BME280;36176;51.506;10.272;2023-05-02T05:25:35;99729.72;;;10.68;98.52
50282;BME280;36176;51.506;10.272;2023-05-02T05:28:02;99733.75;;;10.77;98.00
50282;BME280;36176;51.506;10.272;2023-05-02T05:30:28;99741.28;;;10.86;97.63
50282;BME280;36176;51.506;10.272;2023-05-02T05:32:56;99748.09;;;10.92;97.34
50282;BME280;36176;51.506;10.272;2023-05-02T05:35:27;99748.69;;;10.98;97.22
50282;BME280;36176;51.506;10.272;2023-05-02T05:37:54;99753.09;;;10.99;96.94
50282;BME280;36176;51.506;10.272;2023-05-02T05:40:21;99753.94;;;11.00;97.08
50282;BME280;36176;51.506;10.272;2023-05-02T05:42:48;99743.84;;;11.08;97.10
50282;BME280;36176;51.506;10.272;2023-05-02T05:45:15;99753.84;;;11.22;96.93
50282;BME280;36176;51.506;10.272;2023-05-02T05:47:42;99746.91;;;11.38;96.48
50282;BME280;36176;51.506;10.272;2023-05-02T05:50:10;99750.56;;;11.55;95.89
50282;BME280;36176;51.506;10.272;2023-05-02T05:52:37;99755.94;;;11.72;95.52
50282;BME280;36176;51.506;10.272;2023-05-02T05:55:04;99754.44;;;11.85;95.20
50282;BME280;36176;51.506;10.272;2023-05-02T05:57:32;99754.16;;;11.91;93.49
50282;BME280;36176;51.506;10.272;2023-05-02T05:59:59;99761.97;;;11.95;93.10
50282;BME280;36176;51.506;10.272;2023-05-02T06:02:26;99763.53;;;11.99;92.97
50282;BME280;36176;51.506;10.272;2023-05-02T06:04:54;99763.53;;;11.99;92.50
50282;BME280;36176;51.506;10.272;2023-05-02T06:07:21;99766.19;;;11.99;92.08
50282;BME280;36176;51.506;10.272;2023-05-02T06:09:47;99770.66;;;11.98;92.65
50282;BME280;36176;51.506;10.272;2023-05-02T06:12:14;99774.31;;;11.96;92.79
50282;BME280;36176;51.506;10.272;2023-05-02T06:14:42;99782.06;;;12.00;92.67
50282;BME280;36176;51.506;10.272;2023-05-02T06:17:09;99776.59;;;12.03;92.29
50282;BME280;36176;51.506;10.272;2023-05-02T06:19:36;99782.78;;;12.04;92.19
50282;BME280;36176;51.506;10.272;2023-05-02T06:22:03;99787.88;;;12.08;92.35
50282;BME280;36176;51.506;10.272;2023-05-02T06:24:30;99790.63;;;12.07;92.53
50282;BME280;36176;51.506;10.272;2023-05-02T06:26:57;99794.28;;;12.04;92.33
50282;BME280;36176;51.506;10.272;2023-05-02T06:29:24;99791.63;;;12.04;92.86
50282;BME280;36176;51.506;10.272;2023-05-02T06:31:54;99798.59;;;12.07;91.70
50282;BME280;36176;51.506;10.272;2023-05-02T06:34:21;99801.94;;;12.10;91.91
50282;BME280;36176;51.506;10.272;2023-05-02T06:36:53;99805.31;;;12.14;91.38
50282;BME280;36176;51.506;10.272;2023-05-02T06:39:20;99815.94;;;12.14;90.53
50282;BME280;36176;51.506;10.272;2023-05-02T06:41:47;99819.63;;;12.11;90.31
50282;BME280;36176;51.506;10.272;2023-05-02T06:44:14;99819.81;;;12.07;90.82
50282;BME280;36176;51.506;10.272;2023-05-02T06:46:41;99824.56;;;12.00;91.32
50282;BME280;36176;51.506;10.272;2023-05-02T06:49:08;99825.25;;;12.04;91.05
50282;BME280;36176;51.506;10.272;2023-05-02T06:51:36;99835.81;;;12.05;91.06
50282;BME280;36176;51.506;10.272;2023-05-02T06:54:03;99832.31;;;12.05;90.84
50282;BME280;36176;51.506;10.272;2023-05-02T06:56:30;99836.63;;;12.07;90.98
50282;BME280;36176;51.506;10.272;2023-05-02T06:58:57;99832.16;;;12.08;91.53
50282;BME280;36176;51.506;10.272;2023-05-02T07:01:24;99845.16;;;12.14;91.10
50282;BME280;36176;51.506;10.272;2023-05-02T07:03:51;99855.63;;;12.17;90.19
50282;BME280;36176;51.506;10.272;2023-05-02T07:06:18;99853.69;;;12.21;89.86
50282;BME280;36176;51.506;10.272;2023-05-02T07:08:45;99866.91;;;12.22;88.92
50282;BME280;36176;51.506;10.272;2023-05-02T07:11:12;99855.47;;;12.20;90.03
50282;BME280;36176;51.506;10.272;2023-05-02T07:13:39;99860.41;;;12.28;89.29
50282;BME280;36176;51.506;10.272;2023-05-02T07:16:07;99861.72;;;12.38;89.69
50282;BME280;36176;51.506;10.272;2023-05-02T07:18:34;99863.56;;;12.55;89.14
50282;BME280;36176;51.506;10.272;2023-05-02T07:21:01;99861.88;;;12.71;87.72
50282;BME280;36176;51.506;10.272;2023-05-02T07:23:28;99857.78;;;12.99;86.96
50282;BME280;36176;51.506;10.272;2023-05-02T07:25:55;99859.25;;;14.22;84.50
50282;BME280;36176;51.506;10.272;2023-05-02T07:28:21;99861.97;;;16.43;82.28
50282;BME280;36176;51.506;10.272;2023-05-02T07:30:48;99860.94;;;17.64;74.29
50282;BME280;36176;51.506;10.272;2023-05-02T07:33:15;99859.56;;;17.46;67.21
50282;BME280;36176;51.506;10.272;2023-05-02T07:35:42;99864.53;;;16.99;67.19
50282;BME280;36176;51.506;10.272;2023-05-02T07:38:09;99861.53;;;16.49;68.54
50282;BME280;36176;51.506;10.272;2023-05-02T07:40:36;99864.31;;;15.92;68.86
50282;BME280;36176;51.506;10.272;2023-05-02T07:43:03;99868.97;;;15.45;69.74
50282;BME280;36176;51.506;10.272;2023-05-02T07:45:30;99868.44;;;15.10;71.92
50282;BME280;36176;51.506;10.272;2023-05-02T07:48:21;99869.13;;;14.67;73.02
50282;BME280;36176;51.506;10.272;2023-05-02T07:50:50;99877.75;;;14.57;74.35
50282;BME280;36176;51.506;10.272;2023-05-02T07:53:17;99883.06;;;14.41;74.07
50282;BME280;36176;51.506;10.272;2023-05-02T07:55:44;99874.13;;;14.26;75.59
50282;BME280;36176;51.506;10.272;2023-05-02T07:58:11;99888.38;;;14.09;77.46
50282;BME280;36176;51.506;10.272;2023-05-02T08:00:38;99892.06;;;13.91;79.17
50282;BME280;36176;51.506;10.272;2023-05-02T08:03:05;99897.66;;;13.53;80.92
50282;BME280;36176;51.506;10.272;2023-05-02T08:05:33;99901.63;;;13.27;83.36
50282;BME280;36176;51.506;10.272;2023-05-02T08:08:00;99912.25;;;13.09;85.66
50282;BME280;36176;51.506;10.272;2023-05-02T08:10:28;99907.88;;;12.91;86.56
50282;BME280;36176;51.506;10.272;2023-05-02T08:12:55;99921.34;;;12.69;87.86
50282;BME280;36176;51.506;10.272;2023-05-02T08:15:22;99928.41;;;12.51;89.37
50282;BME280;36176;51.506;10.272;2023-05-02T08:17:49;99925.72;;;12.33;88.02
50282;BME280;36176;51.506;10.272;2023-05-02T08:20:17;99930.88;;;12.18;88.64
50282;BME280;36176;51.506;10.272;2023-05-02T08:22:44;99928.38;;;12.15;89.24
50282;BME280;36176;51.506;10.272;2023-05-02T08:25:10;99929.81;;;12.22;89.66
50282;BME280;36176;51.506;10.272;2023-05-02T08:27:38;99930.06;;;12.34;90.40
50282;BME280;36176;51.506;10.272;2023-05-02T08:30:05;99938.31;;;12.47;90.14
50282;BME280;36176;51.506;10.272;2023-05-02T08:32:34;99941.91;;;12.65;89.87
50282;BME280;36176;51.506;10.272;2023-05-02T08:35:01;99944.38;;;12.87;89.42
50282;BME280;36176;51.506;10.272;2023-05-02T08:37:28;99941.72;;;13.05;90.00
50282;BME280;36176;51.506;10.272;2023-05-02T08:39:55;99946.47;;;13.17;88.17
50282;BME280;36176;51.506;10.272;2023-05-02T08:42:22;99964.81;;;13.04;87.55
50282;BME280;36176;51.506;10.272;2023-05-02T08:44:50;99968.72;;;12.61;86.38
50282;BME280;36176;51.506;10.272;2023-05-02T08:47:18;99980.19;;;12.23;86.92
50282;BME280;36176;51.506;10.272;2023-05-02T08:49:48;99991.41;;;11.90;87.02
50282;BME280;36176;51.506;10.272;2023-05-02T08:52:16;99998.75;;;11.63;87.35
50282;BME280;36176;51.506;10.272;2023-05-02T08:54:47;100004.19;;;11.18;87.20
50282;BME280;36176;51.506;10.272;2023-05-02T08:57:17;100010.88;;;10.84;87.92
50282;BME280;36176;51.506;10.272;2023-05-02T08:59:44;100012.88;;;10.55;88.99
50282;BME280;36176;51.506;10.272;2023-05-02T09:05:10;100020.81;;;10.32;90.83
50282;BME280;36176;51.506;10.272;2023-05-02T09:07:45;100024.66;;;10.23;91.21
50282;BME280;36176;51.506;10.272;2023-05-02T09:10:13;100034.56;;;10.18;92.07
50282;BME280;36176;51.506;10.272;2023-05-02T09:12:41;100040.59;;;10.21;92.40
50282;BME280;36176;51.506;10.272;2023-05-02T09:15:09;100053.59;;;10.29;92.76
50282;BME280;36176;51.506;10.272;2023-05-02T09:17:42;100054.47;;;10.30;93.00
50282;BME280;36176;51.506;10.272;2023-05-02T09:20:14;100058.16;;;10.49;92.16
50282;BME280;36176;51.506;10.272;2023-05-02T09:22:51;100059.50;;;10.61;91.02
50282;BME280;36176;51.506;10.272;2023-05-02T09:25:19;100071.81;;;10.62;90.83
50282;BME280;36176;51.506;10.272;2023-05-02T09:27:54;100074.97;;;10.72;90.24
50282;BME280;36176;51.506;10.272;2023-05-02T09:30:25;100077.50;;;10.75;90.06
50282;BME280;36176;51.506;10.272;2023-05-02T09:32:52;100080.91;;;10.78;90.94
50282;BME280;36176;51.506;10.272;2023-05-02T09:35:25;100081.47;;;10.86;89.24
50282;BME280;36176;51.506;10.272;2023-05-02T09:37:56;100085.38;;;11.00;89.56
50282;BME280;36176;51.506;10.272;2023-05-02T09:40:23;100092.28;;;11.04;88.90
50282;BME280;36176;51.506;10.272;2023-05-02T09:42:52;100097.47;;;11.07;88.19
50282;BME280;36176;51.506;10.272;2023-05-02T09:45:23;100097.47;;;11.07;87.03
50282;BME280;36176;51.506;10.272;2023-05-02T09:47:51;100103.41;;;11.14;86.92
50282;BME280;36176;51.506;10.272;2023-05-02T09:50:39;100111.59;;;11.07;87.89
50282;BME280;36176;51.506;10.272;2023-05-02T09:53:08;100118.72;;;11.05;87.97
50282;BME280;36176;51.506;10.272;2023-05-02T09:55:41;100115.75;;;10.91;87.16
50282;BME280;36176;51.506;10.272;2023-05-02T09:58:19;100112.66;;;10.80;87.16
50282;BME280;36176;51.506;10.272;2023-05-02T10:00:50;100124.28;;;10.76;87.54
50282;BME280;36176;51.506;10.272;2023-05-02T10:03:22;100120.97;;;10.94;88.00
50282;BME280;36176;51.506;10.272;2023-05-02T10:05:50;100125.78;;;11.06;88.05
50282;BME280;36176;51.506;10.272;2023-05-02T10:08:18;100130.50;;;10.98;87.36
50282;BME280;36176;51.506;10.272;2023-05-02T10:10:57;100130.56;;;10.97;86.93
50282;BME280;36176;51.506;10.272;2023-05-02T10:13:26;100136.44;;;11.05;87.66
50282;BME280;36176;51.506;10.272;2023-05-02T10:16:00;100131.22;;;11.25;86.49
50282;BME280;36176;51.506;10.272;2023-05-02T10:19:06;100136.03;;;11.60;85.67
50282;BME280;36176;51.506;10.272;2023-05-02T10:21:25;100133.06;;;11.89;83.05
50282;BME280;36176;51.506;10.272;2023-05-02T10:23:59;100132.28;;;12.08;80.66
50282;BME280;36176;51.506;10.272;2023-05-02T10:26:28;100133.94;;;12.51;81.72
50282;BME280;36176;51.506;10.272;2023-05-02T10:28:55;100139.91;;;12.96;80.21
50282;BME280;36176;51.506;10.272;2023-05-02T10:31:23;100136.66;;;13.08;78.06
50282;BME280;36176;51.506;10.272;2023-05-02T10:33:50;100139.03;;;13.33;77.38
50282;BME280;36176;51.506;10.272;2023-05-02T10:36:21;100142.00;;;13.46;76.31
50282;BME280;36176;51.506;10.272;2023-05-02T10:38:48;100141.56;;;13.55;75.72
50282;BME280;36176;51.506;10.272;2023-05-02T10:41:19;100141.91;;;13.48;75.83
50282;BME280;36176;51.506;10.272;2023-05-02T10:43:48;100143.13;;;13.40;75.25
50282;BME280;36176;51.506;10.272;2023-05-02T10:46:34;100145.13;;;13.16;73.73
50282;BME280;36176;51.506;10.272;2023-05-02T10:49:04;100142.31;;;12.82;74.32
50282;BME280;36176;51.506;10.272;2023-05-02T10:51:33;100148.13;;;12.71;75.21
50282;BME280;36176;51.506;10.272;2023-05-02T10:59:36;100147.72;;;12.99;73.42
50282;BME280;36176;51.506;10.272;2023-05-02T11:05:03;100136.50;;;14.38;73.41
50282;BME280;36176;51.506;10.272;2023-05-02T11:07:35;100145.81;;;15.29;68.40
50282;BME280;36176;51.506;10.272;2023-05-02T11:12:45;100141.94;;;15.82;65.60
50282;BME280;36176;51.506;10.272;2023-05-02T11:18:11;100147.97;;;15.38;64.44
50282;BME280;36176;51.506;10.272;2023-05-02T11:20:41;100147.72;;;15.74;63.49
50282;BME280;36176;51.506;10.272;2023-05-02T11:25:41;100146.53;;;15.32;61.99
50282;BME280;36176;51.506;10.272;2023-05-02T11:31:09;100150.91;;;15.02;63.59
50282;BME280;36176;51.506;10.272;2023-05-02T11:33:56;100157.09;;;14.69;63.04
50282;BME280;36176;51.506;10.272;2023-05-02T11:36:41;100158.44;;;14.60;63.83
50282;BME280;36176;51.506;10.272;2023-05-02T11:39:18;100170.19;;;14.74;64.35
50282;BME280;36176;51.506;10.272;2023-05-02T11:41:45;100162.22;;;14.56;64.00
50282;BME280;36176;51.506;10.272;2023-05-02T11:44:16;100162.44;;;13.99;64.45
50282;BME280;36176;51.506;10.272;2023-05-02T11:46:43;100165.78;;;13.49;65.47
50282;BME280;36176;51.506;10.272;2023-05-02T11:49:11;100172.47;;;13.01;67.63
50282;BME280;36176;51.506;10.272;2023-05-02T11:51:41;100168.13;;;12.80;68.71
50282;BME280;36176;51.506;10.272;2023-05-02T11:54:08;100173.94;;;12.88;68.78
50282;BME280;36176;51.506;10.272;2023-05-02T11:56:35;100179.81;;;13.15;70.55
50282;BME280;36176;51.506;10.272;2023-05-02T11:59:03;100175.75;;;13.46;69.08
50282;BME280;36176;51.506;10.272;2023-05-02T12:01:30;100187.72;;;13.73;67.57
50282;BME280;36176;51.506;10.272;2023-05-02T12:04:04;100181.69;;;13.70;67.94
50282;BME280;36176;51.506;10.272;2023-05-02T12:06:34;100191.19;;;13.56;66.92
50282;BME280;36176;51.506;10.272;2023-05-02T12:09:09;100188.97;;;13.47;66.18
50282;BME280;36176;51.506;10.272;2023-05-02T12:11:36;100196.22;;;13.25;66.77
50282;BME280;36176;51.506;10.272;2023-05-02T12:14:04;100201.31;;;13.10;68.01
50282;BME280;36176;51.506;10.272;2023-05-02T12:16:32;100209.19;;;12.93;68.14
50282;BME280;36176;51.506;10.272;2023-05-02T12:19:03;100211.47;;;12.61;68.29
50282;BME280;36176;51.506;10.272;2023-05-02T12:21:31;100214.72;;;12.47;68.42
50282;BME280;36176;51.506;10.272;2023-05-02T12:24:01;100216.19;;;12.54;68.91
50282;BME280;36176;51.506;10.272;2023-05-02T12:26:28;100220.13;;;12.46;69.21
50282;BME280;36176;51.506;10.272;2023-05-02T12:28:58;100219.25;;;12.66;69.25
50282;BME280;36176;51.506;10.272;2023-05-02T12:31:27;100228.69;;;12.93;70.17
50282;BME280;36176;51.506;10.272;2023-05-02T12:33:56;100230.72;;;13.26;68.07
50282;BME280;36176;51.506;10.272;2023-05-02T12:36:26;100236.94;;;13.27;68.63
50282;BME280;36176;51.506;10.272;2023-05-02T12:38:55;100237.03;;;13.24;67.73
50282;BME280;36176;51.506;10.272;2023-05-02T12:41:35;100241.94;;;13.14;67.65
50282;BME280;36176;51.506;10.272;2023-05-02T12:44:04;100240.13;;;12.95;67.56
50282;BME280;36176;51.506;10.272;2023-05-02T12:46:31;100246.81;;;13.04;68.31
50282;BME280;36176;51.506;10.272;2023-05-02T12:49:02;100248.25;;;13.11;68.14
50282;BME280;36176;51.506;10.272;2023-05-02T12:51:29;100245.78;;;13.07;66.89
50282;BME280;36176;51.506;10.272;2023-05-02T12:53:57;100251.00;;;13.10;67.27
50282;BME280;36176;51.506;10.272;2023-05-02T12:56:24;100253.94;;;13.04;67.44
50282;BME280;36176;51.506;10.272;2023-05-02T12:58:57;100255.81;;;12.81;66.36
50282;BME280;36176;51.506;10.272;2023-05-02T13:01:27;100262.84;;;12.62;66.71
50282;BME280;36176;51.506;10.272;2023-05-02T13:03:54;100270.34;;;12.52;68.61
50282;BME280;36176;51.506;10.272;2023-05-02T13:06:21;100271.44;;;12.48;68.09
50282;BME280;36176;51.506;10.272;2023-05-02T13:08:49;100278.22;;;12.33;67.04
50282;BME280;36176;51.506;10.272;2023-05-02T13:11:16;100274.06;;;12.05;68.39
50282;BME280;36176;51.506;10.272;2023-05-02T13:13:46;100281.97;;;12.07;68.22
50282;BME280;36176;51.506;10.272;2023-05-02T13:16:14;100277.22;;;12.15;68.57
50282;BME280;36176;51.506;10.272;2023-05-02T13:18:41;100271.94;;;12.13;68.58
50282;BME280;36176;51.506;10.272;2023-05-02T13:21:11;100285.22;;;12.13;68.46
50282;BME280;36176;51.506;10.272;2023-05-02T13:23:38;100284.63;;;12.07;68.51
50282;BME280;36176;51.506;10.272;2023-05-02T13:26:06;100279.78;;;11.95;68.40
50282;BME280;36176;51.506;10.272;2023-05-02T13:28:33;100289.28;;;11.78;68.31
50282;BME280;36176;51.506;10.272;2023-05-02T13:31:03;100286.44;;;11.83;68.77
50282;BME280;36176;51.506;10.272;2023-05-02T13:33:30;100289.63;;;11.93;68.99
50282;BME280;36176;51.506;10.272;2023-05-02T13:35:57;100289.50;;;11.96;68.02
50282;BME280;36176;51.506;10.272;2023-05-02T13:38:24;100294.31;;;12.08;67.71
50282;BME280;36176;51.506;10.272;2023-05-02T13:40:51;100299.88;;;12.24;68.24
50282;BME280;36176;51.506;10.272;2023-05-02T13:43:19;100297.97;;;12.05;67.23
50282;BME280;36176;51.506;10.272;2023-05-02T13:45:46;100307.16;;;11.97;68.15